sensor_id;sensor_type;location;lat;lon;timestamp;pressure;altitude;pressure_sealevel;temperature
65738;BMP280;52478;51.844;6.582;2022-11-02T00:02:17;101183.03;;;23.97
65738;BMP280;52478;51.844;6.582;2022-11-02T00:04:44;101175.19;;;23.96
65738;BMP280;52478;51.844;6.582;2022-11-02T00:07:10;101169.06;;;23.97
65738;BMP280;52478;51.844;6.582;2022-11-02T00:09:37;101168.34;;;23.97
65738;BMP280;52478;51.844;6.582;2022-11-02T00:12:04;101166.81;;;23.96
65738;BMP280;52478;51.844;6.582;2022-11-02T00:14:32;101166.06;;;23.95
65738;BMP280;52478;51.844;6.582;2022-11-02T00:16:58;101168.88;;;23.95
65738;BMP280;52478;51.844;6.582;2022-11-02T00:19:25;101164.56;;;23.94
65738;BMP280;52478;51.844;6.582;2022-11-02T00:21:51;101164.56;;;23.94
65738;BMP280;52478;51.844;6.582;2022-11-02T00:24:19;101163.78;;;23.94
65738;BMP280;52478;51.844;6.582;2022-11-02T00:26:46;101157.44;;;23.93
65738;BMP280;52478;51.844;6.582;2022-11-02T00:29:12;101157.44;;;23.93
65738;BMP280;52478;51.844;6.582;2022-11-02T00:31:40;101158.97;;;23.94
65738;BMP280;52478;51.844;6.582;2022-11-02T00:34:07;101163.78;;;23.94
65738;BMP280;52478;51.844;6.582;2022-11-02T00:36:33;101155.41;;;23.94
65738;BMP280;52478;51.844;6.582;2022-11-02T00:39:00;101154.63;;;23.93
65738;BMP280;52478;51.844;6.582;2022-11-02T00:41:26;101154.63;;;23.93
65738;BMP280;52478;51.844;6.582;2022-11-02T00:43:53;101145.53;;;23.93
65738;BMP280;52478;51.844;6.582;2022-11-02T00:46:19;101148.31;;;23.93
65738;BMP280;52478;51.844;6.582;2022-11-02T00:48:47;101142.47;;;23.91
65738;BMP280;52478;51.844;6.582;2022-11-02T00:51:13;101133.56;;;23.92
65738;BMP280;52478;51.844;6.582;2022-11-02T00:53:40;101132.06;;;23.91
65738;BMP280;52478;51.844;6.582;2022-11-02T00:56:07;101132.06;;;23.91
65738;BMP280;52478;51.844;6.582;2022-11-02T00:58:33;101137.66;;;23.91
65738;BMP280;52478;51.844;6.582;2022-11-02T01:01:03;101137.66;;;23.91
65738;BMP280;52478;51.844;6.582;2022-11-02T01:03:29;101143.25;;;23.91
65738;BMP280;52478;51.844;6.582;2022-11-02T01:05:57;101142.47;;;23.91
65738;BMP280;52478;51.844;6.582;2022-11-02T01:08:24;101150.13;;;23.90
65738;BMP280;52478;51.844;6.582;2022-11-02T01:10:50;101151.41;;;23.89
65738;BMP280;52478;51.844;6.582;2022-11-02T01:13:17;101155.50;;;23.88
65738;BMP280;52478;51.844;6.582;2022-11-02T01:15:43;101145.81;;;23.89
65738;BMP280;52478;51.844;6.582;2022-11-02T01:18:10;101140.22;;;23.89
65738;BMP280;52478;51.844;6.582;2022-11-02T01:20:36;101145.09;;;23.89
65738;BMP280;52478;51.844;6.582;2022-11-02T01:23:04;101153.47;;;23.89
65738;BMP280;52478;51.844;6.582;2022-11-02T01:25:30;101147.13;;;23.88
65738;BMP280;52478;51.844;6.582;2022-11-02T01:27:57;101149.91;;;23.88
65738;BMP280;52478;51.844;6.582;2022-11-02T01:30:23;101146.38;;;23.88
65738;BMP280;52478;51.844;6.582;2022-11-02T01:32:50;101149.16;;;23.88
65738;BMP280;52478;51.844;6.582;2022-11-02T01:35:16;101154.00;;;23.87
65738;BMP280;52478;51.844;6.582;2022-11-02T01:37:43;101148.41;;;23.87
65738;BMP280;52478;51.844;6.582;2022-11-02T01:40:11;101153.22;;;23.87
65738;BMP280;52478;51.844;6.582;2022-11-02T01:42:37;101158.06;;;23.86
65738;BMP280;52478;51.844;6.582;2022-11-02T01:45:05;101150.44;;;23.87
65738;BMP280;52478;51.844;6.582;2022-11-02T01:47:34;101148.72;;;23.84
65738;BMP280;52478;51.844;6.582;2022-11-02T01:50:05;101148.94;;;23.86
65738;BMP280;52478;51.844;6.582;2022-11-02T01:52:34;101143.69;;;23.82
65738;BMP280;52478;51.844;6.582;2022-11-02T01:55:05;101160.13;;;23.86
65738;BMP280;52478;51.844;6.582;2022-11-02T01:57:36;101149.47;;;23.84
65738;BMP280;52478;51.844;6.582;2022-11-02T02:00:06;101152.25;;;23.84
65738;BMP280;52478;51.844;6.582;2022-11-02T02:02:36;101149.47;;;23.84
65738;BMP280;52478;51.844;6.582;2022-11-02T02:05:06;101156.59;;;23.85
65738;BMP280;52478;51.844;6.582;2022-11-02T02:07:34;101145.41;;;23.85
65738;BMP280;52478;51.844;6.582;2022-11-02T02:10:02;101157.84;;;23.84
65738;BMP280;52478;51.844;6.582;2022-11-02T02:12:29;101159.13;;;23.83
65738;BMP280;52478;51.844;6.582;2022-11-02T02:14:58;101159.91;;;23.84
65738;BMP280;52478;51.844;6.582;2022-11-02T02:17:35;101162.72;;;23.84
65738;BMP280;52478;51.844;6.582;2022-11-02T02:20:07;101163.25;;;23.82
65738;BMP280;52478;51.844;6.582;2022-11-02T02:26:04;101162.47;;;23.82
65738;BMP280;52478;51.844;6.582;2022-11-02T02:28:41;101170.88;;;23.82
65738;BMP280;52478;51.844;6.582;2022-11-02T02:31:14;101168.06;;;23.82
65738;BMP280;52478;51.844;6.582;2022-11-02T02:33:45;101163.75;;;23.81
65738;BMP280;52478;51.844;6.582;2022-11-02T02:36:18;101160.97;;;23.81
65738;BMP280;52478;51.844;6.582;2022-11-02T02:38:47;101168.59;;;23.80
65738;BMP280;52478;51.844;6.582;2022-11-02T02:41:19;101168.59;;;23.80
65738;BMP280;52478;51.844;6.582;2022-11-02T02:43:52;101181.09;;;23.79
65738;BMP280;52478;51.844;6.582;2022-11-02T02:46:22;101183.88;;;23.79
65738;BMP280;52478;51.844;6.582;2022-11-02T02:48:51;101176.22;;;23.80
65738;BMP280;52478;51.844;6.582;2022-11-02T02:51:24;101175.50;;;23.79
65738;BMP280;52478;51.844;6.582;2022-11-02T02:53:57;101191.53;;;23.79
65738;BMP280;52478;51.844;6.582;2022-11-02T02:56:25;101191.53;;;23.79
65738;BMP280;52478;51.844;6.582;2022-11-02T02:58:58;101185.16;;;23.78
65738;BMP280;52478;51.844;6.582;2022-11-02T03:01:26;101189.25;;;23.77
65738;BMP280;52478;51.844;6.582;2022-11-02T03:03:53;101190.75;;;23.78
65738;BMP280;52478;51.844;6.582;2022-11-02T03:06:23;101190.00;;;23.78
65738;BMP280;52478;51.844;6.582;2022-11-02T03:09:00;101196.88;;;23.77
65738;BMP280;52478;51.844;6.582;2022-11-02T03:11:29;101190.00;;;23.78
65738;BMP280;52478;51.844;6.582;2022-11-02T03:14:18;101196.13;;;23.76
65738;BMP280;52478;51.844;6.582;2022-11-02T03:16:59;101197.41;;;23.75
65738;BMP280;52478;51.844;6.582;2022-11-02T03:19:34;101209.34;;;23.76
65738;BMP280;52478;51.844;6.582;2022-11-02T03:22:07;101202.25;;;23.75
65738;BMP280;52478;51.844;6.582;2022-11-02T03:24:39;101200.22;;;23.75
65738;BMP280;52478;51.844;6.582;2022-11-02T03:27:14;101207.09;;;23.74
65738;BMP280;52478;51.844;6.582;2022-11-02T03:29:51;101207.09;;;23.74
65738;BMP280;52478;51.844;6.582;2022-11-02T03:32:21;101201.50;;;23.74
65738;BMP280;52478;51.844;6.582;2022-11-02T03:34:53;101207.09;;;23.74
65738;BMP280;52478;51.844;6.582;2022-11-02T03:37:24;101218.28;;;23.74
65738;BMP280;52478;51.844;6.582;2022-11-02T03:39:53;101209.88;;;23.74
65738;BMP280;52478;51.844;6.582;2022-11-02T03:42:23;101211.16;;;23.73
65738;BMP280;52478;51.844;6.582;2022-11-02T03:44:56;101215.03;;;23.70
65738;BMP280;52478;51.844;6.582;2022-11-02T03:47:23;101225.16;;;23.73
65738;BMP280;52478;51.844;6.582;2022-11-02T03:49:55;101233.53;;;23.73
65738;BMP280;52478;51.844;6.582;2022-11-02T03:52:25;101221.56;;;23.73
65738;BMP280;52478;51.844;6.582;2022-11-02T03:54:59;101229.22;;;23.72
65738;BMP280;52478;51.844;6.582;2022-11-02T03:57:32;101227.28;;;23.67
65738;BMP280;52478;51.844;6.582;2022-11-02T04:00:12;101230.50;;;23.71
65738;BMP280;52478;51.844;6.582;2022-11-02T04:02:40;101225.69;;;23.72
65738;BMP280;52478;51.844;6.582;2022-11-02T04:05:08;101235.38;;;23.71
65738;BMP280;52478;51.844;6.582;2022-11-02T04:07:37;101234.59;;;23.70
65738;BMP280;52478;51.844;6.582;2022-11-02T04:10:17;101238.91;;;23.71
65738;BMP280;52478;51.844;6.582;2022-11-02T04:12:44;101245.78;;;23.70
65738;BMP280;52478;51.844;6.582;2022-11-02T04:15:29;101247.28;;;23.71
65738;BMP280;52478;51.844;6.582;2022-11-02T04:17:56;101242.22;;;23.70
65738;BMP280;52478;51.844;6.582;2022-11-02T04:20:40;101261.03;;;23.69
65738;BMP280;52478;51.844;6.582;2022-11-02T04:23:07;101258.25;;;23.69
65738;BMP280;52478;51.844;6.582;2022-11-02T04:25:52;101249.84;;;23.69
65738;BMP280;52478;51.844;6.582;2022-11-02T04:28:19;101248.38;;;23.68
65738;BMP280;52478;51.844;6.582;2022-11-02T04:30:47;101260.84;;;23.67
65738;BMP280;52478;51.844;6.582;2022-11-02T04:33:13;101252.44;;;23.67
65738;BMP280;52478;51.844;6.582;2022-11-02T04:35:58;101244.06;;;23.67
65738;BMP280;52478;51.844;6.582;2022-11-02T04:38:24;101244.06;;;23.67
65738;BMP280;52478;51.844;6.582;2022-11-02T04:41:05;101253.19;;;23.68
65738;BMP280;52478;51.844;6.582;2022-11-02T04:43:49;101248.88;;;23.67
65738;BMP280;52478;51.844;6.582;2022-11-02T04:46:17;101255.00;;;23.65
65738;BMP280;52478;51.844;6.582;2022-11-02T04:48:43;101262.09;;;23.66
65738;BMP280;52478;51.844;6.582;2022-11-02T04:51:10;101259.09;;;23.64
65738;BMP280;52478;51.844;6.582;2022-11-02T04:53:36;101266.72;;;23.64
65738;BMP280;52478;51.844;6.582;2022-11-02T04:56:03;101275.88;;;23.64
65738;BMP280;52478;51.844;6.582;2022-11-02T04:58:30;101271.75;;;23.65
65738;BMP280;52478;51.844;6.582;2022-11-02T05:00:56;101281.47;;;23.64
65738;BMP280;52478;51.844;6.582;2022-11-02T05:03:24;101270.28;;;23.64
65738;BMP280;52478;51.844;6.582;2022-11-02T05:05:53;101283.25;;;23.62
65738;BMP280;52478;51.844;6.582;2022-11-02T05:08:20;101282.75;;;23.63
65738;BMP280;52478;51.844;6.582;2022-11-02T05:10:46;101288.34;;;23.63
65738;BMP280;52478;51.844;6.582;2022-11-02T05:13:12;101296.72;;;23.63
65738;BMP280;52478;51.844;6.582;2022-11-02T05:15:39;101296.72;;;23.63
65738;BMP280;52478;51.844;6.582;2022-11-02T05:18:05;101295.22;;;23.62
65738;BMP280;52478;51.844;6.582;2022-11-02T05:20:33;101300.78;;;23.62
65738;BMP280;52478;51.844;6.582;2022-11-02T05:23:00;101311.22;;;23.62
65738;BMP280;52478;51.844;6.582;2022-11-02T05:25:26;101310.47;;;23.61
65738;BMP280;52478;51.844;6.582;2022-11-02T05:27:55;101311.75;;;23.60
65738;BMP280;52478;51.844;6.582;2022-11-02T05:30:21;101312.56;;;23.55
65738;BMP280;52478;51.844;6.582;2022-11-02T05:32:48;101310.47;;;23.61
65738;BMP280;52478;51.844;6.582;2022-11-02T05:35:15;101332.81;;;23.61
65738;BMP280;52478;51.844;6.582;2022-11-02T05:37:42;101325.72;;;23.60
65738;BMP280;52478;51.844;6.582;2022-11-02T05:40:10;101325.72;;;23.60
65738;BMP280;52478;51.844;6.582;2022-11-02T05:42:37;101332.09;;;23.61
65738;BMP280;52478;51.844;6.582;2022-11-02T05:45:04;101332.09;;;23.61
65738;BMP280;52478;51.844;6.582;2022-11-02T05:47:32;101340.97;;;23.59
65738;BMP280;52478;51.844;6.582;2022-11-02T05:49:58;101339.47;;;23.58
65738;BMP280;52478;51.844;6.582;2022-11-02T05:52:25;101346.56;;;23.59
65738;BMP280;52478;51.844;6.582;2022-11-02T05:54:53;101357.75;;;23.59
65738;BMP280;52478;51.844;6.582;2022-11-02T05:57:19;101359.25;;;23.60
65738;BMP280;52478;51.844;6.582;2022-11-02T05:59:46;101355.69;;;23.60
65738;BMP280;52478;51.844;6.582;2022-11-02T06:02:12;101368.94;;;23.59
65738;BMP280;52478;51.844;6.582;2022-11-02T06:04:39;101375.25;;;23.60
65738;BMP280;52478;51.844;6.582;2022-11-02T06:07:05;101373.75;;;23.59
65738;BMP280;52478;51.844;6.582;2022-11-02T06:09:32;101368.16;;;23.59
65738;BMP280;52478;51.844;6.582;2022-11-02T06:12:00;101367.41;;;23.58
65738;BMP280;52478;51.844;6.582;2022-11-02T06:14:26;101374.28;;;23.57
65738;BMP280;52478;51.844;6.582;2022-11-02T06:16:53;101368.16;;;23.59
65738;BMP280;52478;51.844;6.582;2022-11-02T06:19:19;101373.00;;;23.58
65738;BMP280;52478;51.844;6.582;2022-11-02T06:21:45;101379.88;;;23.57
65738;BMP280;52478;51.844;6.582;2022-11-02T06:24:12;101373.00;;;23.58
65738;BMP280;52478;51.844;6.582;2022-11-02T06:26:38;101365.00;;;23.49
65738;BMP280;52478;51.844;6.582;2022-11-02T06:29:06;101383.97;;;23.56
65738;BMP280;52478;51.844;6.582;2022-11-02T06:31:32;101381.16;;;23.56
65738;BMP280;52478;51.844;6.582;2022-11-02T06:33:59;101397.94;;;23.56
65738;BMP280;52478;51.844;6.582;2022-11-02T06:36:25;101396.41;;;23.55
65738;BMP280;52478;51.844;6.582;2022-11-02T06:38:52;101403.53;;;23.56
65738;BMP280;52478;51.844;6.582;2022-11-02T06:41:18;101413.19;;;23.55
65738;BMP280;52478;51.844;6.582;2022-11-02T06:43:45;101424.38;;;23.55
65738;BMP280;52478;51.844;6.582;2022-11-02T06:46:12;101430.19;;;23.57
65738;BMP280;52478;51.844;6.582;2022-11-02T06:48:39;101433.00;;;23.57
65738;BMP280;52478;51.844;6.582;2022-11-02T06:51:06;101435.78;;;23.57
65738;BMP280;52478;51.844;6.582;2022-11-02T06:53:32;101454.06;;;23.58
65738;BMP280;52478;51.844;6.582;2022-11-02T06:55:59;101454.06;;;23.58
65738;BMP280;52478;51.844;6.582;2022-11-02T06:58:26;101459.91;;;23.60
65738;BMP280;52478;51.844;6.582;2022-11-02T07:00:56;101469.56;;;23.59
65738;BMP280;52478;51.844;6.582;2022-11-02T07:03:25;101480.75;;;23.59
65738;BMP280;52478;51.844;6.582;2022-11-02T07:05:52;101482.03;;;23.58
65738;BMP280;52478;51.844;6.582;2022-11-02T07:08:19;101488.34;;;23.59
65738;BMP280;52478;51.844;6.582;2022-11-02T07:10:46;101496.00;;;23.58
65738;BMP280;52478;51.844;6.582;2022-11-02T07:13:13;101501.59;;;23.58
65738;BMP280;52478;51.844;6.582;2022-11-02T07:15:39;101521.38;;;23.60
65738;BMP280;52478;51.844;6.582;2022-11-02T07:18:06;101528.25;;;23.59
65738;BMP280;52478;51.844;6.582;2022-11-02T07:20:35;101525.47;;;23.59
65738;BMP280;52478;51.844;6.582;2022-11-02T07:23:02;101529.53;;;23.58
65738;BMP280;52478;51.844;6.582;2022-11-02T07:25:30;101542.22;;;23.59
65738;BMP280;52478;51.844;6.582;2022-11-02T07:27:57;101538.66;;;23.59
65738;BMP280;52478;51.844;6.582;2022-11-02T07:30:25;101548.78;;;23.67
65738;BMP280;52478;51.844;6.582;2022-11-02T07:32:51;101550.72;;;23.72
65738;BMP280;52478;51.844;6.582;2022-11-02T07:35:18;101557.53;;;23.77
65738;BMP280;52478;51.844;6.582;2022-11-02T07:37:53;101572.28;;;23.77
65738;BMP280;52478;51.844;6.582;2022-11-02T07:40:20;101576.31;;;23.82
65738;BMP280;52478;51.844;6.582;2022-11-02T07:42:46;101574.47;;;23.84
65738;BMP280;52478;51.844;6.582;2022-11-02T07:45:13;101577.53;;;23.86
65738;BMP280;52478;51.844;6.582;2022-11-02T07:47:43;101588.44;;;23.90
65738;BMP280;52478;51.844;6.582;2022-11-02T07:50:10;101593.03;;;23.87
65738;BMP280;52478;51.844;6.582;2022-11-02T07:52:43;101595.00;;;23.92
65738;BMP280;52478;51.844;6.582;2022-11-02T07:55:11;101602.06;;;23.99
65738;BMP280;52478;51.844;6.582;2022-11-02T07:57:37;101604.53;;;24.02
65738;BMP280;52478;51.844;6.582;2022-11-02T08:00:05;101612.66;;;24.06
65738;BMP280;52478;51.844;6.582;2022-11-02T08:02:32;101618.47;;;24.08
65738;BMP280;52478;51.844;6.582;2022-11-02T08:04:58;101621.75;;;24.12
65738;BMP280;52478;51.844;6.582;2022-11-02T08:07:24;101626.06;;;24.13
65738;BMP280;52478;51.844;6.582;2022-11-02T08:09:51;101624.22;;;24.15
65738;BMP280;52478;51.844;6.582;2022-11-02T08:12:19;101612.00;;;24.18
65738;BMP280;52478;51.844;6.582;2022-11-02T08:14:45;101624.19;;;24.21
65738;BMP280;52478;51.844;6.582;2022-11-02T08:17:12;101623.13;;;24.23
65738;BMP280;52478;51.844;6.582;2022-11-02T08:19:38;101621.09;;;24.24
65738;BMP280;52478;51.844;6.582;2022-11-02T08:22:04;101616.47;;;24.26
65738;BMP280;52478;51.844;6.582;2022-11-02T08:24:31;101625.09;;;24.28
65738;BMP280;52478;51.844;6.582;2022-11-02T08:26:57;101631.72;;;24.31
65738;BMP280;52478;51.844;6.582;2022-11-02T08:29:25;101636.00;;;24.32
65738;BMP280;52478;51.844;6.582;2022-11-02T08:31:51;101634.91;;;24.35
65738;BMP280;52478;51.844;6.582;2022-11-02T08:34:18;101644.63;;;24.34
65738;BMP280;52478;51.844;6.582;2022-11-02T08:36:44;101643.09;;;24.33
65738;BMP280;52478;51.844;6.582;2022-11-02T08:39:11;101635.69;;;24.35
65738;BMP280;52478;51.844;6.582;2022-11-02T08:41:37;101649.38;;;24.39
65738;BMP280;52478;51.844;6.582;2022-11-02T08:44:04;101655.22;;;24.41
65738;BMP280;52478;51.844;6.582;2022-11-02T08:46:31;101651.13;;;24.42
65738;BMP280;52478;51.844;6.582;2022-11-02T08:48:58;101655.69;;;24.45
65738;BMP280;52478;51.844;6.582;2022-11-02T08:51:24;101659.75;;;24.44
65738;BMP280;52478;51.844;6.582;2022-11-02T08:53:51;101657.19;;;24.46
65738;BMP280;52478;51.844;6.582;2022-11-02T08:56:17;101658.47;;;24.45
65738;BMP280;52478;51.844;6.582;2022-11-02T08:58:44;101657.78;;;24.39
65738;BMP280;52478;51.844;6.582;2022-11-02T09:01:10;101650.91;;;24.40
65738;BMP280;52478;51.844;6.582;2022-11-02T09:03:38;101674.72;;;24.46
65738;BMP280;52478;51.844;6.582;2022-11-02T09:06:05;101677.03;;;24.48
65738;BMP280;52478;51.844;6.582;2022-11-02T09:08:31;101685.16;;;24.51
65738;BMP280;52478;51.844;6.582;2022-11-02T09:11:00;101685.84;;;24.52
65738;BMP280;52478;51.844;6.582;2022-11-02T09:13:27;101686.13;;;24.54
65738;BMP280;52478;51.844;6.582;2022-11-02T09:15:56;101690.19;;;24.53
65738;BMP280;52478;51.844;6.582;2022-11-02T09:18:22;101692.97;;;24.53
65738;BMP280;52478;51.844;6.582;2022-11-02T09:20:50;101693.25;;;24.55
65738;BMP280;52478;51.844;6.582;2022-11-02T09:23:18;101694.25;;;24.52
65738;BMP280;52478;51.844;6.582;2022-11-02T09:25:46;101685.19;;;24.46
65738;BMP280;52478;51.844;6.582;2022-11-02T09:28:12;101691.25;;;24.50
65738;BMP280;52478;51.844;6.582;2022-11-02T09:30:40;101702.66;;;24.52
65738;BMP280;52478;51.844;6.582;2022-11-02T09:33:07;101702.44;;;24.50
65738;BMP280;52478;51.844;6.582;2022-11-02T09:35:34;101699.84;;;24.52
65738;BMP280;52478;51.844;6.582;2022-11-02T09:38:02;101703.50;;;24.47
65738;BMP280;52478;51.844;6.582;2022-11-02T09:40:34;101713.41;;;24.48
65738;BMP280;52478;51.844;6.582;2022-11-02T09:43:07;101709.09;;;24.47
65738;BMP280;52478;51.844;6.582;2022-11-02T09:45:43;101714.22;;;24.43
65738;BMP280;52478;51.844;6.582;2022-11-02T09:48:16;101711.66;;;24.45
65738;BMP280;52478;51.844;6.582;2022-11-02T09:50:48;101714.22;;;24.43
65738;BMP280;52478;51.844;6.582;2022-11-02T09:53:21;101711.91;;;24.47
65738;BMP280;52478;51.844;6.582;2022-11-02T09:55:52;101724.84;;;24.50
65738;BMP280;52478;51.844;6.582;2022-11-02T09:58:22;101729.38;;;24.53
65738;BMP280;52478;51.844;6.582;2022-11-02T10:00:51;101738.75;;;24.55
65738;BMP280;52478;51.844;6.582;2022-11-02T10:03:30;101733.72;;;24.54
65738;BMP280;52478;51.844;6.582;2022-11-02T10:06:03;101726.38;;;24.51
65738;BMP280;52478;51.844;6.582;2022-11-02T10:08:40;101739.34;;;24.48
65738;BMP280;52478;51.844;6.582;2022-11-02T10:11:19;101738.13;;;24.44
65738;BMP280;52478;51.844;6.582;2022-11-02T10:13:49;101742.22;;;24.43
65738;BMP280;52478;51.844;6.582;2022-11-02T10:16:20;101739.66;;;24.45
65738;BMP280;52478;51.844;6.582;2022-11-02T10:18:51;101760.72;;;24.51
65738;BMP280;52478;51.844;6.582;2022-11-02T10:21:20;101758.91;;;24.54
65738;BMP280;52478;51.844;6.582;2022-11-02T10:23:51;101755.66;;;24.50
65738;BMP280;52478;51.844;6.582;2022-11-02T10:26:21;101757.66;;;24.49
65738;BMP280;52478;51.844;6.582;2022-11-02T10:28:50;101761.25;;;24.50
65738;BMP280;52478;51.844;6.582;2022-11-02T10:31:24;101766.59;;;24.48
65738;BMP280;52478;51.844;6.582;2022-11-02T10:33:52;101779.31;;;24.49
65738;BMP280;52478;51.844;6.582;2022-11-02T10:36:28;101767.81;;;24.52
65738;BMP280;52478;51.844;6.582;2022-11-02T10:39:04;101769.63;;;24.50
65738;BMP280;52478;51.844;6.582;2022-11-02T10:41:40;101776.28;;;24.47
65738;BMP280;52478;51.844;6.582;2022-11-02T10:44:18;101778.25;;;24.52
65738;BMP280;52478;51.844;6.582;2022-11-02T10:46:56;101784.13;;;24.54
65738;BMP280;52478;51.844;6.582;2022-11-02T10:49:41;101778.72;;;24.56
65738;BMP280;52478;51.844;6.582;2022-11-02T10:52:13;101780.63;;;25.27
65738;BMP280;52478;51.844;6.582;2022-11-02T10:54:42;101781.06;;;24.94
65738;BMP280;52478;51.844;6.582;2022-11-02T10:57:11;101780.44;;;24.83
65738;BMP280;52478;51.844;6.582;2022-11-02T10:59:38;101774.38;;;24.79
65738;BMP280;52478;51.844;6.582;2022-11-02T11:02:10;101789.22;;;24.74
65738;BMP280;52478;51.844;6.582;2022-11-02T11:04:38;101793.31;;;24.73
65738;BMP280;52478;51.844;6.582;2022-11-02T11:07:06;101794.25;;;24.81
65738;BMP280;52478;51.844;6.582;2022-11-02T11:09:44;101794.25;;;24.81
65738;BMP280;52478;51.844;6.582;2022-11-02T11:12:16;101791.66;;;24.83
65738;BMP280;52478;51.844;6.582;2022-11-02T11:14:47;101796.03;;;24.78
65738;BMP280;52478;51.844;6.582;2022-11-02T11:17:16;101799.66;;;24.73
65738;BMP280;52478;51.844;6.582;2022-11-02T11:19:46;101803.63;;;24.83
65738;BMP280;52478;51.844;6.582;2022-11-02T11:22:24;101792.13;;;24.87
65738;BMP280;52478;51.844;6.582;2022-11-02T11:24:50;101802.53;;;24.86
65738;BMP280;52478;51.844;6.582;2022-11-02T11:27:19;101796.94;;;24.86
65738;BMP280;52478;51.844;6.582;2022-11-02T11:29:49;101799.47;;;24.90
65738;BMP280;52478;51.844;6.582;2022-11-02T11:32:18;101795.13;;;24.89
65738;BMP280;52478;51.844;6.582;2022-11-02T11:34:53;101798.69;;;24.89
65738;BMP280;52478;51.844;6.582;2022-11-02T11:37:21;101792.84;;;24.87
65738;BMP280;52478;51.844;6.582;2022-11-02T11:39:51;101802.03;;;24.88
65738;BMP280;52478;51.844;6.582;2022-11-02T11:42:21;101803.09;;;24.85
65738;BMP280;52478;51.844;6.582;2022-11-02T11:44:56;101785.00;;;24.86
65738;BMP280;52478;51.844;6.582;2022-11-02T11:47:29;101795.22;;;24.83
65738;BMP280;52478;51.844;6.582;2022-11-02T11:49:59;101802.84;;;24.83
65738;BMP280;52478;51.844;6.582;2022-11-02T11:52:30;101789.09;;;24.85
65738;BMP280;52478;51.844;6.582;2022-11-02T11:54:57;101791.34;;;24.86
65738;BMP280;52478;51.844;6.582;2022-11-02T11:57:28;101786.50;;;24.87
65738;BMP280;52478;51.844;6.582;2022-11-02T11:59:56;101793.63;;;24.88
65738;BMP280;52478;51.844;6.582;2022-11-02T12:02:27;101775.50;;;24.89
65738;BMP280;52478;51.844;6.582;2022-11-02T12:05:01;101781.88;;;24.89
65738;BMP280;52478;51.844;6.582;2022-11-02T12:07:53;101789.31;;;24.87
65738;BMP280;52478;51.844;6.582;2022-11-02T12:10:37;101777.59;;;24.88
65738;BMP280;52478;51.844;6.582;2022-11-02T12:13:13;101771.22;;;24.88
65738;BMP280;52478;51.844;6.582;2022-11-02T12:15:54;101772.72;;;24.89
65738;BMP280;52478;51.844;6.582;2022-11-02T12:18:32;101760.25;;;24.90
65738;BMP280;52478;51.844;6.582;2022-11-02T12:21:09;101768.66;;;24.90
65738;BMP280;52478;51.844;6.582;2022-11-02T12:23:53;101766.59;;;24.90
65738;BMP280;52478;51.844;6.582;2022-11-02T12:26:30;101771.47;;;24.90
65738;BMP280;52478;51.844;6.582;2022-11-02T12:29:10;101760.25;;;24.90
65738;BMP280;52478;51.844;6.582;2022-11-02T12:31:43;101752.59;;;24.90
65738;BMP280;52478;51.844;6.582;2022-11-02T12:34:47;101771.47;;;24.90
65738;BMP280;52478;51.844;6.582;2022-11-02T12:37:22;101764.56;;;24.91
65738;BMP280;52478;51.844;6.582;2022-11-02T12:40:03;101769.41;;;24.90
65738;BMP280;52478;51.844;6.582;2022-11-02T12:42:40;101766.41;;;24.88
65738;BMP280;52478;51.844;6.582;2022-11-02T12:45:20;101763.78;;;24.90
65738;BMP280;52478;51.844;6.582;2022-11-02T12:47:54;101764.03;;;24.92
65738;BMP280;52478;51.844;6.582;2022-11-02T12:50:30;101763.06;;;24.90
65738;BMP280;52478;51.844;6.582;2022-11-02T12:53:11;101758.97;;;24.91
65738;BMP280;52478;51.844;6.582;2022-11-02T12:55:43;101764.41;;;24.83
65738;BMP280;52478;51.844;6.582;2022-11-02T12:58:15;101755.03;;;24.81
65738;BMP280;52478;51.844;6.582;2022-11-02T13:00:44;101760.91;;;24.77
65738;BMP280;52478;51.844;6.582;2022-11-02T13:03:25;101768.31;;;24.75
65738;BMP280;52478;51.844;6.582;2022-11-02T13:05:58;101763.03;;;24.71
65738;BMP280;52478;51.844;6.582;2022-11-02T13:08:28;101760.22;;;24.71
65738;BMP280;52478;51.844;6.582;2022-11-02T13:11:03;101752.66;;;24.66
65738;BMP280;52478;51.844;6.582;2022-11-02T13:13:33;101755.97;;;24.65
65738;BMP280;52478;51.844;6.582;2022-11-02T13:16:02;101760.06;;;24.64
65738;BMP280;52478;51.844;6.582;2022-11-02T13:18:32;101749.38;;;24.62
65738;BMP280;52478;51.844;6.582;2022-11-02T13:21:03;101735.91;;;24.61
65738;BMP280;52478;51.844;6.582;2022-11-02T13:23:33;101744.06;;;24.59
65738;BMP280;52478;51.844;6.582;2022-11-02T13:26:02;101733.63;;;24.59
65738;BMP280;52478;51.844;6.582;2022-11-02T13:28:33;101736.97;;;24.58
65738;BMP280;52478;51.844;6.582;2022-11-02T13:31:05;101741.56;;;24.55
65738;BMP280;52478;51.844;6.582;2022-11-02T13:33:40;101742.59;;;24.58
65738;BMP280;52478;51.844;6.582;2022-11-02T13:36:08;101742.59;;;24.58
65738;BMP280;52478;51.844;6.582;2022-11-02T13:38:39;101743.34;;;24.58
65738;BMP280;52478;51.844;6.582;2022-11-02T13:41:17;101739.78;;;24.58
65738;BMP280;52478;51.844;6.582;2022-11-02T13:44:00;101749.44;;;24.57
65738;BMP280;52478;51.844;6.582;2022-11-02T13:46:52;101745.59;;;24.60
65738;BMP280;52478;51.844;6.582;2022-11-02T13:49:25;101731.38;;;24.58
65738;BMP280;52478;51.844;6.582;2022-11-02T13:51:54;101753.78;;;24.58
65738;BMP280;52478;51.844;6.582;2022-11-02T13:54:25;101750.72;;;24.56
65738;BMP280;52478;51.844;6.582;2022-11-02T13:56:55;101745.13;;;24.56
65738;BMP280;52478;51.844;6.582;2022-11-02T13:59:26;101743.63;;;24.55
65738;BMP280;52478;51.844;6.582;2022-11-02T14:01:55;101741.81;;;24.57
65738;BMP280;52478;51.844;6.582;2022-11-02T14:04:23;101741.56;;;24.55
65738;BMP280;52478;51.844;6.582;2022-11-02T14:06:52;101730.91;;;24.54
65738;BMP280;52478;51.844;6.582;2022-11-02T14:09:25;101737.25;;;24.54
65738;BMP280;52478;51.844;6.582;2022-11-02T14:12:10;101733.72;;;24.54
65738;BMP280;52478;51.844;6.582;2022-11-02T14:14:37;101718.47;;;24.49
65738;BMP280;52478;51.844;6.582;2022-11-02T14:17:11;101716.91;;;24.54